createdAt,value
2023-03-24T00:01:20.298Z,4.50
2023-03-24T00:03:49.069Z,4.67
2023-03-24T00:06:18.873Z,5.63
2023-03-24T00:08:47.861Z,3.93
2023-03-24T00:11:15.140Z,4.37
2023-03-24T00:13:41.974Z,4.47
2023-03-24T00:16:11.551Z,4.00
2023-03-24T00:18:39.461Z,4.80
2023-03-24T00:21:07.845Z,5.27
2023-03-24T00:23:35.489Z,4.80
2023-03-24T00:26:09.000Z,4.50
2023-03-24T00:28:37.079Z,4.63
2023-03-24T00:31:05.785Z,4.80
2023-03-24T00:33:35.009Z,4.87
2023-03-24T00:36:07.299Z,4.50
2023-03-24T00:38:34.796Z,5.30
2023-03-24T00:41:02.461Z,4.63
2023-03-24T00:43:29.836Z,4.13
2023-03-24T00:46:08.826Z,4.27
2023-03-24T00:48:38.076Z,5.40
2023-03-24T00:51:08.079Z,4.70
2023-03-24T00:53:35.268Z,4.00
2023-03-24T00:56:02.056Z,4.60
2023-03-24T00:58:29.853Z,4.37
2023-03-24T01:00:58.102Z,5.00
2023-03-24T01:03:27.575Z,4.27
2023-03-24T01:05:57.748Z,4.30
2023-03-24T01:08:25.721Z,4.37
2023-03-24T01:10:53.399Z,4.97
2023-03-24T01:13:26.537Z,4.00
2023-03-24T01:15:54.384Z,5.20
2023-03-24T01:18:23.826Z,4.53
2023-03-24T01:20:51.342Z,5.10
2023-03-24T01:23:21.658Z,4.13
2023-03-24T01:25:50.037Z,5.03
2023-03-24T01:28:21.749Z,4.90
2023-03-24T01:30:48.467Z,4.93
2023-03-24T01:33:15.537Z,5.03
2023-03-24T01:35:42.413Z,4.57
2023-03-24T01:38:11.123Z,5.10
2023-03-24T01:40:43.502Z,5.40
2023-03-24T01:43:22.638Z,5.30
2023-03-24T01:45:58.202Z,6.20
2023-03-24T01:48:31.355Z,5.20
2023-03-24T01:51:21.266Z,5.43
2023-03-24T01:53:52.226Z,4.77
2023-03-24T01:56:19.571Z,5.13
2023-03-24T01:58:51.927Z,5.80
2023-03-24T02:01:19.463Z,5.23
2023-03-24T02:03:46.778Z,5.80
2023-03-24T02:06:14.830Z,5.73
2023-03-24T02:08:55.358Z,5.70
2023-03-24T02:11:24.922Z,5.13
2023-03-24T02:13:51.913Z,5.77
2023-03-24T02:16:38.269Z,5.67
2023-03-24T02:19:39.254Z,5.40
2023-03-24T02:22:28.012Z,5.60
2023-03-24T02:25:13.329Z,5.53
2023-03-24T02:28:07.788Z,6.07
2023-03-24T02:31:16.339Z,5.33
2023-03-24T02:34:16.991Z,7.57
2023-03-24T02:36:52.759Z,6.63
2023-03-24T02:39:31.710Z,5.80
2023-03-24T02:42:07.109Z,6.33
2023-03-24T02:45:02.059Z,5.80
2023-03-24T02:48:08.546Z,5.57
2023-03-24T02:50:51.714Z,4.80
2023-03-24T02:53:32.315Z,5.00
2023-03-24T02:56:06.022Z,5.07
2023-03-24T02:58:46.287Z,4.80
2023-03-24T03:01:31.482Z,5.80
2023-03-24T03:04:04.266Z,4.73
2023-03-24T03:06:36.374Z,5.90
2023-03-24T03:09:09.808Z,6.30
2023-03-24T03:11:39.256Z,7.10
2023-03-24T03:14:18.056Z,8.33
2023-03-24T03:17:09.171Z,5.40
2023-03-24T03:19:45.278Z,4.90
2023-03-24T03:22:18.674Z,5.10
2023-03-24T03:24:53.118Z,4.40
2023-03-24T03:27:29.369Z,5.00
2023-03-24T03:30:02.890Z,4.83
2023-03-24T03:32:39.144Z,5.60
2023-03-24T03:35:17.859Z,5.00
2023-03-24T03:37:59.189Z,4.50
2023-03-24T03:40:35.481Z,5.17
2023-03-24T03:43:03.298Z,5.47
2023-03-24T03:45:30.321Z,5.00
2023-03-24T03:47:57.206Z,3.80
2023-03-24T03:50:23.957Z,5.23
2023-03-24T03:52:52.533Z,4.47
2023-03-24T03:55:19.383Z,5.30
2023-03-24T03:57:46.505Z,4.43
2023-03-24T04:00:19.997Z,4.40
2023-03-24T04:03:24.344Z,4.63
2023-03-24T04:06:04.914Z,4.70
2023-03-24T04:08:48.729Z,4.83
2023-03-24T04:11:57.980Z,4.20
2023-03-24T04:15:05.478Z,3.60
2023-03-24T04:17:45.864Z,4.40
2023-03-24T04:20:46.475Z,4.53
2023-03-24T04:23:28.269Z,4.30
2023-03-24T04:26:17.973Z,4.13
2023-03-24T04:29:09.194Z,4.20
2023-03-24T04:31:44.972Z,5.70
2023-03-24T04:34:37.305Z,4.97
2023-03-24T04:37:14.868Z,5.07
2023-03-24T04:39:45.692Z,5.63
2023-03-24T04:42:19.427Z,8.70
2023-03-24T04:44:46.698Z,7.00
2023-03-24T04:47:13.663Z,4.30
2023-03-24T04:49:40.628Z,5.17
2023-03-24T04:52:08.041Z,4.83
2023-03-24T04:54:35.043Z,4.73
2023-03-24T04:57:02.709Z,4.80
2023-03-24T04:59:30.769Z,4.67
2023-03-24T05:01:57.836Z,5.40
2023-03-24T05:04:27.249Z,5.67
2023-03-24T05:06:54.352Z,4.70
2023-03-24T05:09:23.030Z,4.90
2023-03-24T05:11:50.633Z,5.00
2023-03-24T05:14:17.622Z,4.93
2023-03-24T05:16:44.362Z,5.10
2023-03-24T05:19:11.740Z,5.10
2023-03-24T05:21:38.477Z,5.40
2023-03-24T05:24:06.833Z,5.07
2023-03-24T05:26:33.860Z,5.97
2023-03-24T05:29:01.048Z,5.53
2023-03-24T05:31:27.784Z,5.10
2023-03-24T05:33:55.648Z,6.07
2023-03-24T05:36:22.422Z,4.70
2023-03-24T05:38:49.206Z,5.97
2023-03-24T05:41:16.051Z,5.80
2023-03-24T05:43:42.803Z,5.57
2023-03-24T05:46:09.617Z,5.93
2023-03-24T05:48:36.371Z,5.80
2023-03-24T05:51:03.104Z,5.93
2023-03-24T05:53:29.867Z,6.30
2023-03-24T05:55:58.630Z,5.53
2023-03-24T05:58:25.716Z,5.80
2023-03-24T06:00:54.570Z,6.63
2023-03-24T06:03:21.498Z,5.87
2023-03-24T06:05:49.376Z,5.67
2023-03-24T06:08:17.189Z,4.60
2023-03-24T06:10:44.142Z,5.73
2023-03-24T06:13:11.255Z,5.90
2023-03-24T06:15:39.681Z,5.70
2023-03-24T06:18:08.020Z,6.20
2023-03-24T06:20:36.200Z,5.07
2023-03-24T06:23:03.102Z,5.10
2023-03-24T06:25:30.042Z,5.10
2023-03-24T06:27:56.918Z,8.50
2023-03-24T06:30:23.778Z,7.60
2023-03-24T06:32:51.308Z,6.30
2023-03-24T06:35:18.194Z,6.00
2023-03-24T06:37:45.214Z,5.50
2023-03-24T06:40:15.841Z,5.30
2023-03-24T06:42:43.153Z,4.77
2023-03-24T06:45:10.309Z,5.60
2023-03-24T06:47:37.499Z,6.40
2023-03-24T06:50:05.843Z,6.37
2023-03-24T06:52:33.005Z,6.50
2023-03-24T06:54:59.818Z,5.93
2023-03-24T06:57:27.359Z,6.27
2023-03-24T06:59:54.387Z,6.40
2023-03-24T07:02:21.215Z,6.03
2023-03-24T07:04:48.992Z,6.03
2023-03-24T07:07:52.721Z,6.50
2023-03-24T07:10:05.761Z,6.20
2023-03-24T07:12:32.530Z,5.30
2023-03-24T07:14:59.945Z,6.00
2023-03-24T07:17:26.679Z,5.47
2023-03-24T07:19:53.391Z,5.50
2023-03-24T07:22:20.521Z,4.00
2023-03-24T07:24:47.195Z,3.63
2023-03-24T07:27:13.901Z,3.50
2023-03-24T07:29:40.828Z,2.60
2023-03-24T07:32:08.087Z,3.30
2023-03-24T07:34:36.933Z,3.33
2023-03-24T07:37:03.640Z,5.53
2023-03-24T07:39:31.142Z,3.50
2023-03-24T07:41:58.079Z,3.60
2023-03-24T07:44:25.814Z,2.63
2023-03-24T07:46:52.990Z,3.27
2023-03-24T07:49:20.552Z,2.83
2023-03-24T07:51:47.267Z,2.53
2023-03-24T07:54:14.086Z,2.83
2023-03-24T07:56:42.019Z,2.83
2023-03-24T07:59:09.837Z,3.43
2023-03-24T08:01:38.427Z,3.13
2023-03-24T08:04:06.933Z,3.10
2023-03-24T08:06:34.802Z,3.03
2023-03-24T08:09:01.598Z,3.50
2023-03-24T08:11:29.435Z,3.70
2023-03-24T08:13:56.387Z,2.70
2023-03-24T08:16:23.224Z,4.30
2023-03-24T08:18:50.716Z,2.87
2023-03-24T08:21:17.457Z,3.07
2023-03-24T08:23:44.349Z,3.47
2023-03-24T08:26:11.114Z,3.00
2023-03-24T08:28:38.193Z,3.47
2023-03-24T08:31:05.337Z,3.33
2023-03-24T08:33:32.116Z,3.60
2023-03-24T08:36:00.832Z,3.50
2023-03-24T08:38:31.051Z,3.73
2023-03-24T08:41:06.553Z,3.30
2023-03-24T08:43:35.538Z,3.17
2023-03-24T08:46:03.042Z,3.63
2023-03-24T08:48:30.731Z,3.30
2023-03-24T08:50:57.587Z,4.20
2023-03-24T08:53:24.522Z,2.50
2023-03-24T08:55:52.403Z,3.20
2023-03-24T08:58:21.004Z,3.20
2023-03-24T09:00:48.798Z,2.87
2023-03-24T09:03:22.712Z,3.67
2023-03-24T09:05:50.335Z,3.30
2023-03-24T09:08:19.831Z,3.30
2023-03-24T09:10:47.114Z,3.60
2023-03-24T09:13:15.343Z,3.27
2023-03-24T09:15:54.035Z,4.03
2023-03-24T09:18:21.986Z,3.37
2023-03-24T09:20:49.333Z,3.23
2023-03-24T09:23:16.441Z,3.43
2023-03-24T09:25:43.220Z,3.30
2023-03-24T09:28:10.117Z,3.40
2023-03-24T09:30:37.080Z,2.60
2023-03-24T09:33:04.202Z,3.30
2023-03-24T09:35:31.266Z,3.50
2023-03-24T09:37:58.062Z,2.80
2023-03-24T09:40:31.039Z,2.50
2023-03-24T09:43:06.196Z,3.00
2023-03-24T09:45:36.969Z,3.67
2023-03-24T09:48:12.650Z,2.77
2023-03-24T09:51:05.410Z,3.10
2023-03-24T09:53:43.305Z,3.10
2023-03-24T09:56:14.772Z,3.13
2023-03-24T09:58:43.819Z,2.53
2023-03-24T10:01:16.350Z,2.67
2023-03-24T10:03:44.883Z,2.30
2023-03-24T10:06:23.480Z,2.50
2023-03-24T10:09:12.402Z,2.47
2023-03-24T10:12:09.931Z,2.30
2023-03-24T10:14:49.915Z,3.63
2023-03-24T10:17:34.645Z,4.50
2023-03-24T10:20:15.886Z,3.37
2023-03-24T10:23:05.665Z,2.93
2023-03-24T10:26:11.244Z,3.60
2023-03-24T10:29:01.031Z,2.20
2023-03-24T10:31:37.244Z,3.33
2023-03-24T10:34:04.648Z,2.97
2023-03-24T10:36:32.198Z,3.33
2023-03-24T10:39:03.955Z,3.10
2023-03-24T10:41:42.459Z,3.60
2023-03-24T10:44:12.286Z,2.57
2023-03-24T10:46:46.673Z,2.83
2023-03-24T10:49:14.637Z,2.50
2023-03-24T10:51:46.790Z,2.27
2023-03-24T10:54:25.591Z,2.57
2023-03-24T10:57:02.506Z,2.67
2023-03-24T10:59:51.324Z,2.43
2023-03-24T11:02:23.768Z,2.33
2023-03-24T11:05:02.549Z,2.30
2023-03-24T11:07:42.359Z,2.07
2023-03-24T11:10:19.189Z,2.10
2023-03-24T11:13:02.616Z,1.60
2023-03-24T11:15:37.438Z,1.90
2023-03-24T11:18:15.647Z,1.63
2023-03-24T11:20:56.505Z,1.80
2023-03-24T11:23:44.648Z,1.97
2023-03-24T11:26:23.114Z,2.07
2023-03-24T11:28:59.180Z,2.03
2023-03-24T11:31:31.877Z,2.57
2023-03-24T11:34:09.303Z,2.23
2023-03-24T11:36:54.474Z,2.67
2023-03-24T11:39:26.540Z,2.90
2023-03-24T11:42:01.791Z,2.60
2023-03-24T11:44:49.460Z,4.90
2023-03-24T11:47:36.456Z,2.90
2023-03-24T11:50:09.480Z,3.10
2023-03-24T11:52:39.681Z,3.50
2023-03-24T11:55:17.164Z,2.57
2023-03-24T11:57:59.543Z,2.87
2023-03-24T12:00:48.090Z,3.30
2023-03-24T12:03:33.130Z,2.80
2023-03-24T12:06:18.125Z,3.30
2023-03-24T12:09:01.140Z,2.97
2023-03-24T12:12:08.341Z,2.80
2023-03-24T12:15:03.131Z,2.57
2023-03-24T12:17:40.331Z,2.50
2023-03-24T12:20:23.380Z,2.30
2023-03-24T12:22:59.456Z,2.60
2023-03-24T12:25:37.447Z,1.80
2023-03-24T12:28:10.454Z,1.63
2023-03-24T12:31:15.384Z,1.33
2023-03-24T12:33:47.977Z,1.63
2023-03-24T12:36:31.730Z,2.10
2023-03-24T12:39:12.505Z,1.57
2023-03-24T12:41:59.346Z,1.50
2023-03-24T12:44:29.259Z,2.40
2023-03-24T12:46:59.119Z,1.20
2023-03-24T12:49:30.147Z,1.07
2023-03-24T12:52:25.488Z,0.87
2023-03-24T12:55:08.130Z,1.07
2023-03-24T12:57:42.478Z,1.20
2023-03-24T13:00:42.152Z,1.00
2023-03-24T13:03:19.054Z,1.20
2023-03-24T13:05:51.376Z,1.20
2023-03-24T13:08:29.729Z,1.27
2023-03-24T13:11:04.172Z,0.90
2023-03-24T13:13:38.744Z,1.50
2023-03-24T13:16:23.047Z,1.30
2023-03-24T13:18:59.861Z,1.30
2023-03-24T13:21:28.900Z,1.77
2023-03-24T13:24:08.962Z,1.97
2023-03-24T13:26:39.583Z,1.10
2023-03-24T13:29:49.942Z,3.43
2023-03-24T13:32:22.532Z,3.20
2023-03-24T13:35:01.289Z,0.90
2023-03-24T13:37:37.980Z,0.87
2023-03-24T13:40:18.455Z,1.17
2023-03-24T13:42:56.071Z,1.73
2023-03-24T13:45:41.366Z,1.10
2023-03-24T13:48:11.078Z,1.13
2023-03-24T13:50:42.207Z,1.20
2023-03-24T13:53:15.057Z,1.00
2023-03-24T13:55:50.573Z,1.30
2023-03-24T13:58:27.549Z,0.97
2023-03-24T14:01:09.611Z,1.10
2023-03-24T14:03:39.501Z,0.80
2023-03-24T14:06:09.526Z,0.80
2023-03-24T14:08:43.829Z,1.30
2023-03-24T14:11:41.435Z,1.23
2023-03-24T14:14:14.161Z,0.90
2023-03-24T14:17:15.878Z,1.13
2023-03-24T14:20:11.201Z,0.87
2023-03-24T14:22:46.435Z,0.80
2023-03-24T14:25:16.201Z,1.40
2023-03-24T14:27:48.017Z,1.17
2023-03-24T14:30:22.092Z,1.27
2023-03-24T14:32:53.621Z,2.30
2023-03-24T14:35:44.535Z,1.87
2023-03-24T14:38:14.316Z,1.37
2023-03-24T14:40:44.426Z,0.80
2023-03-24T14:43:28.256Z,0.73
2023-03-24T14:46:00.196Z,0.97
2023-03-24T14:48:43.684Z,0.60
2023-03-24T14:51:47.101Z,0.73
2023-03-24T14:54:30.558Z,1.10
2023-03-24T14:56:58.980Z,0.73
2023-03-24T14:59:55.035Z,1.13
2023-03-24T15:02:47.976Z,0.90
2023-03-24T15:05:23.134Z,1.43
2023-03-24T15:08:10.632Z,1.07
2023-03-24T15:10:46.102Z,1.27
2023-03-24T15:13:34.101Z,1.33
2023-03-24T15:16:04.191Z,0.80
2023-03-24T15:18:31.090Z,1.00
2023-03-24T15:20:57.834Z,1.30
2023-03-24T15:23:31.248Z,1.10
2023-03-24T15:26:00.032Z,1.63
2023-03-24T15:28:28.085Z,1.20
2023-03-24T15:30:56.909Z,1.40
2023-03-24T15:33:23.776Z,1.27
2023-03-24T15:35:57.256Z,1.67
2023-03-24T15:38:33.678Z,1.33
2023-03-24T15:41:04.838Z,1.53
2023-03-24T15:43:31.635Z,1.00
2023-03-24T15:46:11.901Z,1.40
2023-03-24T15:48:39.862Z,1.10
2023-03-24T15:51:11.824Z,1.27
2023-03-24T15:53:45.839Z,1.40
2023-03-24T15:56:12.885Z,1.20
2023-03-24T15:58:53.642Z,1.70
2023-03-24T16:01:27.410Z,1.43
2023-03-24T16:03:54.982Z,1.30
2023-03-24T16:06:30.043Z,1.67
2023-03-24T16:09:11.937Z,1.10
2023-03-24T16:11:43.658Z,0.90
2023-03-24T16:14:20.857Z,1.63
2023-03-24T16:16:47.601Z,1.47
2023-03-24T16:19:14.553Z,3.03
2023-03-24T16:21:41.403Z,1.27
2023-03-24T16:24:08.284Z,0.90
2023-03-24T16:26:35.387Z,1.10
2023-03-24T16:29:16.777Z,0.90
2023-03-24T16:31:45.152Z,1.17
2023-03-24T16:34:11.862Z,1.20
2023-03-24T16:36:38.824Z,1.43
2023-03-24T16:39:13.765Z,1.10
2023-03-24T16:41:40.577Z,0.70
2023-03-24T16:44:07.352Z,4.30
2023-03-24T16:46:35.474Z,2.83
2023-03-24T16:49:05.102Z,1.30
2023-03-24T16:51:32.161Z,1.10
2023-03-24T16:53:59.397Z,1.70
2023-03-24T16:56:26.712Z,1.70
2023-03-24T16:58:54.578Z,1.07
2023-03-24T17:01:33.540Z,1.23
2023-03-24T17:04:13.409Z,1.50
2023-03-24T17:06:43.260Z,1.33
2023-03-24T17:09:10.541Z,1.47
2023-03-24T17:11:58.459Z,1.10
2023-03-24T17:14:25.299Z,1.20
2023-03-24T17:16:53.404Z,1.10
2023-03-24T17:19:21.952Z,1.37
2023-03-24T17:22:02.244Z,1.27
2023-03-24T17:24:32.768Z,1.40
2023-03-24T17:26:59.497Z,0.97
2023-03-24T17:29:26.303Z,1.27
2023-03-24T17:31:53.908Z,1.47
2023-03-24T17:34:22.198Z,1.43
2023-03-24T17:36:50.888Z,1.40
2023-03-24T17:39:19.494Z,1.00
2023-03-24T17:41:46.299Z,1.30
2023-03-24T17:44:13.508Z,1.40
2023-03-24T17:46:40.482Z,1.23
2023-03-24T17:49:07.410Z,1.17
2023-03-24T17:51:34.185Z,1.47
2023-03-24T17:54:00.964Z,1.30
2023-03-24T17:56:27.819Z,1.30
2023-03-24T17:58:56.323Z,1.40
2023-03-24T18:01:23.723Z,1.20
2023-03-24T18:03:50.836Z,1.53
2023-03-24T18:06:17.584Z,1.13
2023-03-24T18:08:45.030Z,1.20
2023-03-24T18:11:14.595Z,2.60
2023-03-24T18:13:43.060Z,1.50
2023-03-24T18:16:20.635Z,1.63
2023-03-24T18:18:48.922Z,1.50
2023-03-24T18:21:15.711Z,1.00
2023-03-24T18:23:42.503Z,1.03
2023-03-24T18:26:09.607Z,1.17
2023-03-24T18:28:38.019Z,1.03
2023-03-24T18:31:25.809Z,1.70
2023-03-24T18:33:54.411Z,1.77
2023-03-24T18:36:26.375Z,2.00
2023-03-24T18:39:02.535Z,1.50
2023-03-24T18:41:30.329Z,1.20
2023-03-24T18:43:59.334Z,1.60
2023-03-24T18:46:27.398Z,1.90
2023-03-24T18:48:54.873Z,2.23
2023-03-24T18:51:22.866Z,1.97
2023-03-24T18:53:50.116Z,1.33
2023-03-24T18:56:17.920Z,1.40
2023-03-24T18:58:45.972Z,1.40
2023-03-24T19:01:15.672Z,1.37
2023-03-24T19:03:44.212Z,1.47
2023-03-24T19:06:14.831Z,1.50
2023-03-24T19:08:49.463Z,1.23
2023-03-24T19:11:16.420Z,1.60
2023-03-24T19:13:49.824Z,1.60
2023-03-24T19:16:18.793Z,3.73
2023-03-24T19:18:45.860Z,2.33
2023-03-24T19:21:13.021Z,1.80
2023-03-24T19:23:39.796Z,1.50
2023-03-24T19:26:06.582Z,1.37
2023-03-24T19:28:36.242Z,1.33
2023-03-24T19:31:09.858Z,1.60
2023-03-24T19:33:37.552Z,1.33
2023-03-24T19:36:05.809Z,1.43
2023-03-24T19:38:32.750Z,1.70
2023-03-24T19:41:14.359Z,1.50
2023-03-24T19:43:41.154Z,1.33
2023-03-24T19:46:08.123Z,1.07
2023-03-24T19:48:35.621Z,1.20
2023-03-24T19:51:02.658Z,1.10
2023-03-24T19:53:29.591Z,1.40
2023-03-24T19:55:58.227Z,1.50
2023-03-24T19:58:25.832Z,0.97
2023-03-24T20:00:53.406Z,1.53
2023-03-24T20:03:20.525Z,2.10
2023-03-24T20:05:47.738Z,2.30
2023-03-24T20:08:14.820Z,1.10
2023-03-24T20:10:41.785Z,1.60
2023-03-24T20:13:09.985Z,1.67
2023-03-24T20:15:37.248Z,1.20
2023-03-24T20:18:04.396Z,1.40
2023-03-24T20:20:31.680Z,1.30
2023-03-24T20:22:58.683Z,1.47
2023-03-24T20:25:25.490Z,1.77
2023-03-24T20:27:52.348Z,1.10
2023-03-24T20:30:20.333Z,1.20
2023-03-24T20:32:47.688Z,1.30
2023-03-24T20:35:14.638Z,1.10
2023-03-24T20:37:41.491Z,1.10
2023-03-24T20:40:11.553Z,1.20
2023-03-24T20:42:38.492Z,1.30
2023-03-24T20:45:06.776Z,1.10
2023-03-24T20:47:33.671Z,2.40
2023-03-24T20:50:01.282Z,1.37
2023-03-24T20:52:29.103Z,1.33
2023-03-24T20:54:56.573Z,2.23
2023-03-24T20:57:25.727Z,1.37
2023-03-24T20:59:53.015Z,2.03
2023-03-24T21:02:20.334Z,1.20
2023-03-24T21:04:47.270Z,1.30
2023-03-24T21:07:14.364Z,1.10
2023-03-24T21:09:41.149Z,1.17
2023-03-24T21:12:09.381Z,1.00
2023-03-24T21:14:36.271Z,1.73
2023-03-24T21:17:03.065Z,0.90
2023-03-24T21:19:29.835Z,0.90
2023-03-24T21:21:56.697Z,1.40
2023-03-24T21:24:24.379Z,1.17
2023-03-24T21:26:53.832Z,1.80
2023-03-24T21:29:22.505Z,1.47
2023-03-24T21:31:49.919Z,1.00
2023-03-24T21:34:16.821Z,0.87
2023-03-24T21:36:43.708Z,1.60
2023-03-24T21:39:12.067Z,1.10
2023-03-24T21:41:39.800Z,1.10
2023-03-24T21:44:09.187Z,1.17
2023-03-24T21:46:36.918Z,1.53
2023-03-24T21:49:05.013Z,1.03
2023-03-24T21:51:36.957Z,1.00
2023-03-24T21:54:06.726Z,1.50
2023-03-24T21:56:35.374Z,1.20
2023-03-24T21:59:02.759Z,1.83
2023-03-24T22:01:31.107Z,1.50
2023-03-24T22:03:58.801Z,1.33
2023-03-24T22:06:28.996Z,1.60
2023-03-24T22:08:58.721Z,1.10
2023-03-24T22:11:25.802Z,1.40
2023-03-24T22:13:52.695Z,1.77
2023-03-24T22:16:19.468Z,1.47
2023-03-24T22:18:47.260Z,1.57
2023-03-24T22:21:14.268Z,1.83
2023-03-24T22:23:42.610Z,1.40
2023-03-24T22:26:14.985Z,1.30
2023-03-24T22:28:42.665Z,1.33
2023-03-24T22:31:16.234Z,1.60
2023-03-24T22:33:44.197Z,1.80
2023-03-24T22:36:11.606Z,1.47
2023-03-24T22:38:38.456Z,2.10
2023-03-24T22:41:07.417Z,1.30
2023-03-24T22:43:35.768Z,1.63
2023-03-24T22:46:02.897Z,1.47
2023-03-24T22:48:29.826Z,2.03
2023-03-24T22:50:56.865Z,1.60
2023-03-24T22:53:23.895Z,1.80
2023-03-24T22:55:51.013Z,1.63
2023-03-24T22:58:17.934Z,1.90
2023-03-24T23:00:47.148Z,1.90
2023-03-24T23:03:14.758Z,1.40
2023-03-24T23:05:43.499Z,1.80
2023-03-24T23:08:11.760Z,1.67
2023-03-24T23:10:40.503Z,1.60
2023-03-24T23:13:07.325Z,1.57
2023-03-24T23:15:34.308Z,1.80
2023-03-24T23:18:01.132Z,1.70
2023-03-24T23:20:28.289Z,1.57
2023-03-24T23:22:55.842Z,1.20
2023-03-24T23:25:22.874Z,2.17
2023-03-24T23:27:49.949Z,1.80
2023-03-24T23:30:17.318Z,1.80
2023-03-24T23:32:46.954Z,1.37
2023-03-24T23:35:14.198Z,1.40
2023-03-24T23:37:40.978Z,1.30
2023-03-24T23:40:12.882Z,1.50
2023-03-24T23:42:42.044Z,1.50
2023-03-24T23:45:10.950Z,2.23
2023-03-24T23:47:37.844Z,1.33
2023-03-24T23:50:06.312Z,1.10
2023-03-24T23:52:33.715Z,1.40
2023-03-24T23:55:02.457Z,1.20
2023-03-24T23:57:29.479Z,1.40
2023-03-24T23:59:56.437Z,1.33
